Time;durP1;ratioP1;P1;durP2;ratioP2;P2;SDS_P1;SDS_P2;PMS_P1;PMS_P2;Temp;Humidity;BMP_temperature;BMP_pressure;BME280_temperature;BME280_humidity;BME280_pressure;Samples;Min_cycle;Max_cycle;Signal;HPM_P1;HPM_P2
2022/05/15 00:02:56;;;;;;;2.70;1.30;;;;;;;16.34;53.94;100605.12;5588064;31;33948;-66
2022/05/15 00:06:02;;;;;;;5.45;1.50;;;;;;;16.36;54.05;100614.59;5588166;31;34581;-65
2022/05/15 00:09:06;;;;;;;3.03;1.70;;;;;;;16.36;54.13;100613.81;5587879;31;34145;-66
2022/05/15 00:12:09;;;;;;;4.87;1.42;;;;;;;16.38;54.13;100612.56;5586732;31;33197;-65
2022/05/15 00:15:12;;;;;;;4.82;1.40;;;;;;;16.38;54.10;100617.09;5589803;31;32700;-65
2022/05/15 00:18:16;;;;;;;2.10;1.35;;;;;;;16.39;54.16;100622.25;5590847;31;35232;-66
2022/05/15 00:21:19;;;;;;;2.35;1.25;;;;;;;16.35;54.70;100623.69;5589663;31;33873;-66
2022/05/15 00:24:23;;;;;;;5.00;1.40;;;;;;;16.02;55.54;100618.16;5589881;31;32520;-66
2022/05/15 00:27:25;;;;;;;4.43;1.50;;;;;;;15.95;55.75;100613.78;5590488;31;35218;-67
2022/05/15 00:30:29;;;;;;;3.12;1.37;;;;;;;16.00;57.10;100616.69;5589856;31;33957;-66
2022/05/15 00:33:32;;;;;;;3.53;1.52;;;;;;;15.72;56.85;100619.41;5590620;31;34042;-66
2022/05/15 00:36:35;;;;;;;2.47;1.55;;;;;;;15.81;56.88;100620.09;5590549;31;34115;-66
2022/05/15 00:39:37;;;;;;;3.92;1.42;;;;;;;15.72;57.35;100622.09;5590512;31;34692;-66
2022/05/15 00:42:42;;;;;;;2.45;1.25;;;;;;;15.63;57.43;100617.91;5590680;31;34010;-66
2022/05/15 00:45:44;;;;;;;2.55;1.37;;;;;;;15.59;57.84;100621.97;5590543;31;33953;-66
2022/05/15 00:48:49;;;;;;;2.33;1.45;;;;;;;15.55;58.26;100631.41;5590407;31;34023;-66
2022/05/15 00:51:58;;;;;;;2.87;1.55;;;;;;;15.39;58.53;100626.31;5590489;31;33879;-66
2022/05/15 00:55:13;;;;;;;4.57;1.60;;;;;;;15.40;58.54;100625.28;5590373;31;35479;-66
2022/05/15 00:58:22;;;;;;;3.22;1.40;;;;;;;15.43;58.56;100627.59;5590410;31;33912;-67
2022/05/15 01:01:25;;;;;;;2.93;1.30;;;;;;;15.50;57.97;100623.09;5590386;31;34262;-66
2022/05/15 01:04:29;;;;;;;2.97;1.45;;;;;;;15.47;58.01;100621.66;5589707;31;32439;-66
2022/05/15 01:07:32;;;;;;;2.70;1.40;;;;;;;15.36;58.58;100624.84;5589613;31;33303;-66
2022/05/15 01:10:38;;;;;;;5.72;1.77;;;;;;;15.13;60.10;100617.03;5576675;31;32456;-66
2022/05/15 01:13:43;;;;;;;2.42;1.62;;;;;;;15.07;61.57;100615.12;5590250;31;34019;-66
2022/05/15 01:16:46;;;;;;;5.03;1.73;;;;;;;15.00;62.27;100610.75;5590449;31;33604;-66
2022/05/15 01:19:49;;;;;;;3.60;1.70;;;;;;;14.83;63.15;100612.84;5590150;31;34604;-66
2022/05/15 01:22:52;;;;;;;6.87;2.35;;;;;;;14.77;63.70;100618.91;5590239;31;34032;-66
2022/05/15 01:26:00;;;;;;;5.90;2.15;;;;;;;14.72;64.47;100619.50;5588213;31;32552;-66
2022/05/15 01:29:06;;;;;;;4.53;1.67;;;;;;;14.66;64.63;100627.44;5575809;31;32852;-66
2022/05/15 01:32:10;;;;;;;3.10;1.92;;;;;;;14.45;65.55;100628.22;5590102;31;34005;-66
2022/05/15 01:35:14;;;;;;;5.50;2.42;;;;;;;14.41;66.25;100623.44;5589665;31;33904;-66
2022/05/15 01:38:18;;;;;;;3.00;2.00;;;;;;;14.49;65.99;100621.50;5590223;31;33988;-66
2022/05/15 01:41:23;;;;;;;3.65;2.12;;;;;;;14.31;66.53;100627.19;5590406;31;34473;-66
2022/05/15 01:44:26;;;;;;;6.15;2.83;;;;;;;14.23;67.12;100624.59;5589969;31;34619;-66
2022/05/15 01:47:29;;;;;;;4.97;2.08;;;;;;;14.20;67.34;100624.16;5588859;31;32391;-66
2022/05/15 01:50:33;;;;;;;4.28;1.92;;;;;;;14.23;67.66;100624.59;5589104;31;32770;-66
2022/05/15 01:53:35;;;;;;;5.20;2.00;;;;;;;14.01;68.36;100630.88;5589155;31;33989;-66
2022/05/15 01:56:39;;;;;;;4.20;1.75;;;;;;;13.96;69.21;100632.44;5588965;31;34163;-66
2022/05/15 01:59:42;;;;;;;4.00;2.03;;;;;;;13.79;69.84;100634.47;5576107;31;32608;-66
2022/05/15 02:02:45;;;;;;;3.05;1.75;;;;;;;13.94;70.53;100643.31;5589845;31;33952;-66
2022/05/15 02:05:49;;;;;;;2.95;1.87;;;;;;;14.01;69.26;100638.88;5589447;31;33832;-66
2022/05/15 02:08:53;;;;;;;4.30;1.90;;;;;;;13.85;69.47;100639.06;5588833;31;32794;-66
2022/05/15 02:11:56;;;;;;;4.12;2.35;;;;;;;13.88;69.92;100639.53;5589765;31;33861;-66
2022/05/15 02:14:58;;;;;;;6.50;2.37;;;;;;;14.12;68.94;100641.09;5589692;31;34028;-66
2022/05/15 02:18:02;;;;;;;4.15;2.05;;;;;;;14.21;68.70;100649.84;5589219;31;33162;-66
2022/05/15 02:21:04;;;;;;;4.57;2.40;;;;;;;14.06;69.54;100643.66;5589692;31;34257;-66
2022/05/15 02:24:08;;;;;;;10.75;2.47;;;;;;;14.10;69.45;100644.97;5588756;31;34429;-66
2022/05/15 02:27:11;;;;;;;4.80;2.20;;;;;;;13.97;70.23;100647.44;5589242;31;34179;-66
2022/05/15 02:30:17;;;;;;;5.25;2.08;;;;;;;13.98;70.71;100647.28;5588962;31;33484;-66
2022/05/15 02:33:20;;;;;;;5.65;2.55;;;;;;;13.89;71.35;100648.38;5589651;31;34009;-66
2022/05/15 02:36:23;;;;;;;5.12;2.35;;;;;;;14.05;70.86;100644.69;5588582;31;33961;-66
2022/05/15 02:39:26;;;;;;;5.05;2.00;;;;;;;13.91;71.50;100643.66;5589486;31;34004;-66
2022/05/15 02:42:29;;;;;;;10.27;2.30;;;;;;;13.75;72.52;100647.31;5588450;31;32669;-66
2022/05/15 02:45:31;;;;;;;4.40;2.10;;;;;;;13.60;73.54;100651.00;5589744;31;34652;-67
2022/05/15 02:51:56;;;;;;;3.47;2.12;;;;;;;13.39;75.28;100657.81;5589344;31;35154;-66
2022/05/15 02:54:59;;;;;;;6.43;2.42;;;;;;;13.36;76.93;100652.03;5589317;31;35236;-67
2022/05/15 02:58:02;;;;;;;5.60;2.30;;;;;;;13.22;77.87;100653.63;5589134;31;34130;-66
2022/05/15 03:01:06;;;;;;;4.18;2.80;;;;;;;13.08;79.00;100662.34;5589219;31;34039;-67
2022/05/15 03:04:09;;;;;;;5.82;2.55;;;;;;;13.01;79.33;100669.41;5588539;31;32555;-66
2022/05/15 03:07:12;;;;;;;5.47;2.20;;;;;;;12.96;81.14;100669.94;5589025;31;35232;-66
2022/05/15 03:10:17;;;;;;;4.15;2.30;;;;;;;13.01;81.93;100664.91;5589043;31;34710;-66
2022/05/15 03:13:21;;;;;;;4.00;2.28;;;;;;;13.20;82.37;100671.63;5588895;31;33909;-66
2022/05/15 03:16:23;;;;;;;6.05;2.50;;;;;;;13.02;82.57;100665.75;5589029;31;34054;-66
2022/05/15 03:19:26;;;;;;;3.58;2.10;;;;;;;12.96;82.39;100663.78;5588851;31;34716;-66
2022/05/15 03:22:29;;;;;;;3.53;2.35;;;;;;;12.95;82.13;100660.28;5588870;31;33926;-66
2022/05/15 03:25:33;;;;;;;3.97;2.60;;;;;;;12.86;82.37;100671.16;5588124;31;33204;-66
2022/05/15 03:28:36;;;;;;;4.53;2.40;;;;;;;12.82;81.95;100676.00;5588415;31;34101;-67
2022/05/15 03:31:39;;;;;;;2.78;2.10;;;;;;;12.77;81.62;100675.69;5588712;31;34636;-66
2022/05/15 03:34:42;;;;;;;4.12;2.30;;;;;;;12.77;81.38;100685.53;5588019;31;33597;-67
2022/05/15 03:37:45;;;;;;;6.60;2.10;;;;;;;12.74;82.20;100678.69;5588890;31;33875;-67
2022/05/15 03:40:47;;;;;;;3.60;2.17;;;;;;;12.74;82.68;100685.84;5588910;31;33997;-66
2022/05/15 03:43:50;;;;;;;4.53;2.17;;;;;;;12.71;82.55;100688.88;5587712;31;32412;-66
2022/05/15 03:46:53;;;;;;;6.62;2.28;;;;;;;12.69;82.50;100691.69;5588343;31;34326;-67
2022/05/15 03:50:07;;;;;;;3.08;2.12;;;;;;;12.71;82.20;100687.03;5590927;31;34582;-66
2022/05/15 03:53:10;;;;;;;4.37;2.05;;;;;;;12.72;82.20;100690.53;5577430;31;33278;-66
2022/05/15 03:56:13;;;;;;;4.35;2.00;;;;;;;12.75;82.07;100701.66;5590529;31;33991;-66
2022/05/15 03:59:18;;;;;;;3.67;2.33;;;;;;;12.83;81.83;100687.50;5589763;31;32981;-67
2022/05/15 04:02:21;;;;;;;3.22;2.10;;;;;;;12.88;81.81;100693.94;5590843;31;33852;-66
2022/05/15 04:05:23;;;;;;;4.47;2.30;;;;;;;12.99;81.22;100693.53;5577271;31;33268;-67
2022/05/15 04:08:27;;;;;;;3.20;1.98;;;;;;;13.07;81.45;100690.81;5590640;31;33952;-67
2022/05/15 04:11:30;;;;;;;4.87;2.40;;;;;;;13.13;81.76;100701.81;5590042;31;34166;-66
2022/05/15 04:14:33;;;;;;;3.22;2.05;;;;;;;13.20;81.26;100698.28;5589579;31;33012;-67
2022/05/15 04:17:43;;;;;;;4.25;2.40;;;;;;;13.20;81.28;100694.78;5589875;31;32477;-67
2022/05/15 04:20:46;;;;;;;4.00;2.20;;;;;;;13.55;80.45;100696.00;5591099;31;34364;-66
2022/05/15 04:23:49;;;;;;;3.87;2.05;;;;;;;13.75;78.21;100708.66;5590006;31;32423;-67
2022/05/15 04:26:52;;;;;;;3.85;2.15;;;;;;;13.83;78.51;100703.25;5590896;31;34604;-67
2022/05/15 04:29:55;;;;;;;4.68;2.20;;;;;;;13.93;76.98;100701.16;5590728;31;34275;-66
2022/05/15 04:32:57;;;;;;;3.40;1.70;;;;;;;14.25;74.26;100701.81;5590672;31;35287;-66
2022/05/15 04:36:02;;;;;;;3.20;2.03;;;;;;;14.40;71.18;100704.53;5589905;31;32532;-66
2022/05/15 04:39:06;;;;;;;2.97;1.70;;;;;;;14.26;72.10;100704.31;5589485;31;32971;-66
2022/05/15 04:42:10;;;;;;;2.85;1.85;;;;;;;14.29;71.74;100703.94;5590533;31;34049;-66
2022/05/15 04:45:12;;;;;;;3.53;1.77;;;;;;;14.32;71.95;100713.44;5590963;31;34385;-67
2022/05/15 04:48:16;;;;;;;2.95;1.83;;;;;;;14.42;71.65;100707.84;5589824;31;33589;-67
2022/05/15 04:51:19;;;;;;;4.65;1.87;;;;;;;14.56;71.33;100715.84;5589513;31;33627;-67
2022/05/15 04:54:22;;;;;;;3.55;2.17;;;;;;;14.76;70.31;100714.25;5590400;31;34619;-65
2022/05/15 04:57:24;;;;;;;5.00;1.85;;;;;;;14.94;69.16;100721.03;5589722;31;34694;-66
2022/05/15 05:00:27;;;;;;;4.70;2.00;;;;;;;14.94;69.90;100719.19;5589580;31;32601;-66
2022/05/15 05:03:29;;;;;;;5.80;1.60;;;;;;;14.99;69.75;100723.97;5590290;31;35301;-66
2022/05/15 05:06:33;;;;;;;3.12;1.87;;;;;;;15.04;70.50;100732.25;5589590;31;34712;-66
2022/05/15 05:09:35;;;;;;;3.05;1.92;;;;;;;15.19;69.59;100733.06;5590491;31;35249;-66
2022/05/15 05:12:38;;;;;;;2.92;1.80;;;;;;;15.30;69.07;100735.22;5589572;31;32339;-67
2022/05/15 05:15:40;;;;;;;3.58;2.00;;;;;;;15.39;69.42;100736.78;5576541;31;33149;-67
2022/05/15 05:18:43;;;;;;;3.47;1.77;;;;;;;15.53;68.33;100732.41;5590310;31;34740;-67
2022/05/15 05:21:46;;;;;;;3.22;1.87;;;;;;;15.63;68.74;100730.25;5590193;31;33983;-66
2022/05/15 05:24:48;;;;;;;3.40;1.95;;;;;;;15.70;68.63;100728.44;5589116;31;33539;-66
2022/05/15 05:27:51;;;;;;;3.65;1.90;;;;;;;15.79;67.78;100731.78;5589397;31;34424;-67
2022/05/15 05:30:54;;;;;;;4.75;2.00;;;;;;;16.06;66.79;100736.34;5588818;31;32856;-66
2022/05/15 05:33:57;;;;;;;2.15;1.75;;;;;;;16.03;67.45;100737.56;5590000;31;34004;-67
2022/05/15 05:37:00;;;;;;;3.58;1.77;;;;;;;16.13;67.62;100739.06;5589389;31;32441;-67
2022/05/15 05:40:04;;;;;;;4.40;2.00;;;;;;;16.32;67.65;100741.87;5589245;31;33130;-67
2022/05/15 05:43:08;;;;;;;3.70;2.00;;;;;;;16.48;67.25;100741.56;5589443;31;32373;-67
2022/05/15 05:46:11;;;;;;;6.18;2.08;;;;;;;16.61;66.31;100748.87;5576389;31;32523;-67
2022/05/15 05:49:14;;;;;;;3.20;1.80;;;;;;;16.69;65.48;100746.06;5589135;31;33120;-67
2022/05/15 05:52:18;;;;;;;3.95;1.80;;;;;;;16.85;63.59;100748.38;5575890;31;32433;-67
2022/05/15 05:55:22;;;;;;;4.35;1.80;;;;;;;17.09;60.89;100738.19;5588767;31;34018;-66
2022/05/15 05:58:24;;;;;;;5.50;2.05;;;;;;;17.22;60.57;100739.03;5590172;31;34629;-67
2022/05/15 06:01:27;;;;;;;3.47;1.58;;;;;;;17.35;60.69;100738.22;5590173;31;34250;-67
2022/05/15 06:04:40;;;;;;;9.73;1.77;;;;;;;17.41;59.32;100744.66;5588565;31;34135;-67
2022/05/15 06:07:43;;;;;;;5.35;1.55;;;;;;;17.53;58.10;100748.38;5589184;31;33280;-67
2022/05/15 06:10:46;;;;;;;3.65;1.40;;;;;;;17.68;58.86;100741.81;5588014;31;33804;-66
2022/05/15 06:13:49;;;;;;;6.25;1.52;;;;;;;17.94;56.32;100749.06;5589935;31;34674;-66
2022/05/15 06:16:51;;;;;;;3.97;1.60;;;;;;;17.99;56.17;100745.75;5589963;31;34062;-66
2022/05/15 06:19:55;;;;;;;2.45;1.45;;;;;;;18.07;55.27;100748.22;5589008;31;32640;-67
2022/05/15 06:22:58;;;;;;;4.35;1.33;;;;;;;18.23;53.51;100754.00;5588851;31;33912;-67
2022/05/15 06:26:02;;;;;;;3.60;1.62;;;;;;;18.45;52.75;100751.06;5589569;31;33883;-67
2022/05/15 06:29:05;;;;;;;3.97;1.65;;;;;;;18.61;51.54;100750.66;5575422;31;32070;-67
2022/05/15 06:32:08;;;;;;;4.87;1.12;;;;;;;18.64;51.97;100751.03;5588859;31;34280;-67
2022/05/15 06:35:13;;;;;;;3.95;1.40;;;;;;;18.87;52.23;100752.44;5588924;31;32473;-66
2022/05/15 06:38:16;;;;;;;3.55;1.35;;;;;;;19.05;51.54;100753.38;5589421;31;33928;-66
2022/05/15 06:41:19;;;;;;;5.00;1.40;;;;;;;19.21;51.19;100756.63;5588767;31;32682;-66
2022/05/15 06:44:21;;;;;;;2.75;1.30;;;;;;;19.39;49.27;100746.78;5588365;31;32853;-66
2022/05/15 06:47:24;;;;;;;2.42;1.15;;;;;;;19.48;49.54;100750.06;5588591;31;32590;-67
2022/05/15 06:50:27;;;;;;;2.67;1.40;;;;;;;19.69;47.70;100749.72;5588517;31;32432;-67
2022/05/15 06:53:30;;;;;;;5.25;1.40;;;;;;;20.06;46.41;100749.84;5588427;31;32339;-66
2022/05/15 06:59:56;;;;;;;2.58;1.17;;;;;;;20.70;44.28;100752.13;5589037;31;33976;-66
2022/05/15 07:02:58;;;;;;;2.78;1.37;;;;;;;21.04;42.06;100743.41;5587947;31;33642;-67
2022/05/15 07:06:01;;;;;;;1.92;1.05;;;;;;;21.44;41.55;100742.91;5587912;31;33434;-66
2022/05/15 07:09:04;;;;;;;2.72;1.40;;;;;;;21.80;39.08;100737.34;5588284;31;33257;-66
2022/05/15 07:12:07;;;;;;;1.83;1.10;;;;;;;22.13;37.73;100741.38;5587711;31;33120;-66
2022/05/15 07:15:11;;;;;;;6.05;1.15;;;;;;;22.26;37.46;100741.19;5588276;31;32301;-67
2022/05/15 07:18:14;;;;;;;3.12;1.23;;;;;;;22.67;36.67;100737.47;5589016;31;34613;-66
2022/05/15 07:21:17;;;;;;;2.33;0.93;;;;;;;23.52;35.46;100740.28;5588244;31;33302;-67
2022/05/15 07:24:22;;;;;;;2.58;1.15;;;;;;;24.16;35.71;100739.75;5576339;31;33515;-67
2022/05/15 07:27:24;;;;;;;2.70;0.90;;;;;;;24.93;33.64;100739.72;5589804;31;32467;-67
2022/05/15 07:30:27;;;;;;;3.65;1.12;;;;;;;25.93;32.63;100746.47;5590457;31;34454;-67
2022/05/15 07:33:30;;;;;;;2.03;1.00;;;;;;;25.03;32.31;100747.16;5590179;31;34125;-68
2022/05/15 07:36:33;;;;;;;6.30;1.20;;;;;;;25.85;32.05;100736.06;5590781;31;34029;-68
2022/05/15 07:39:36;;;;;;;3.75;1.00;;;;;;;26.27;30.99;100741.56;5590937;31;34653;-68
2022/05/15 07:42:41;;;;;;;2.17;0.85;;;;;;;27.01;31.11;100741.41;5591035;31;34563;-68
2022/05/15 07:45:44;;;;;;;1.90;1.10;;;;;;;27.77;29.70;100738.84;5589849;31;32462;-66
2022/05/15 07:48:47;;;;;;;2.42;0.90;;;;;;;28.53;27.48;100736.84;5576249;31;33759;-65
2022/05/15 07:51:49;;;;;;;3.60;1.23;;;;;;;27.59;28.56;100742.94;5589382;31;32412;-67
2022/05/15 07:54:52;;;;;;;2.50;1.00;;;;;;;27.80;28.89;100739.09;5590162;31;33933;-68
2022/05/15 07:57:55;;;;;;;2.90;1.15;;;;;;;27.51;29.41;100732.53;5590512;31;34291;-66
2022/05/15 08:01:00;;;;;;;7.43;1.23;;;;;;;28.12;27.55;100733.41;5589527;31;33149;-67
2022/05/15 08:04:03;;;;;;;1.80;0.98;;;;;;;29.22;25.47;100734.09;5589694;31;34204;-67
2022/05/15 08:10:33;;;;;;;1.83;0.88;;;;;;;28.14;26.33;100739.38;5589456;31;32859;-67
2022/05/15 08:13:36;;;;;;;1.92;0.88;;;;;;;29.71;24.74;100734.06;5590262;31;34184;-69
2022/05/15 08:16:39;;;;;;;2.22;0.90;;;;;;;28.44;25.82;100731.13;5590387;31;34032;-68
2022/05/15 08:26:26;;;;;;;1.92;0.80;;;;;;;31.15;23.22;100737.72;5589771;31;32833;-67
2022/05/15 08:29:29;;;;;;;3.00;1.08;;;;;;;30.71;24.03;100730.59;5589431;31;33858;-68
2022/05/15 08:32:32;;;;;;;2.40;1.00;;;;;;;27.93;26.87;100719.44;5589270;31;34253;-68
2022/05/15 08:35:35;;;;;;;3.62;1.00;;;;;;;28.06;27.37;100731.72;5589785;31;35010;-69
2022/05/15 08:38:38;;;;;;;3.25;1.00;;;;;;;28.74;25.77;100730.25;5576342;31;33440;-69
2022/05/15 08:41:47;;;;;;;5.18;1.00;;;;;;;30.14;24.49;100726.84;5589603;31;32313;-68
2022/05/15 08:44:57;;;;;;;4.32;1.08;;;;;;;30.78;24.13;100736.56;5590040;31;34021;-68
2022/05/15 08:48:06;;;;;;;3.25;0.85;;;;;;;30.76;24.50;100725.06;5589394;31;32399;-67
2022/05/15 08:51:13;;;;;;;2.87;1.00;;;;;;;28.63;26.65;100730.53;5575930;31;33107;-67
2022/05/15 08:54:15;;;;;;;3.45;0.70;;;;;;;27.26;28.08;100727.84;5588767;31;34548;-68
2022/05/15 08:57:34;;;;;;;0.95;0.70;;;;;;;29.53;25.90;100717.53;5590143;31;34534;-67
2022/05/15 09:00:44;;;;;;;1.80;1.00;;;;;;;31.31;23.59;100725.44;5589432;31;32322;-67
2022/05/15 09:03:47;;;;;;;3.30;0.90;;;;;;;29.50;24.83;100721.63;5590312;31;34190;-67
2022/05/15 09:07:30;;;;;;;3.28;1.20;;;;;;;28.46;26.24;100714.50;5576110;31;33871;-69
2022/05/15 09:10:42;;;;;;;2.83;1.20;;;;;;;28.23;27.03;100709.62;5588980;31;32439;-70
2022/05/15 09:13:54;;;;;;;2.50;1.00;;;;;;;28.69;26.16;100719.31;5589276;31;33246;-68
2022/05/15 09:17:28;;;;;;;1.60;0.85;;;;;;;28.83;25.98;100708.63;5588985;31;32569;-68
2022/05/15 09:20:52;;;;;;;1.65;0.90;;;;;;;30.10;25.36;100720.31;5590054;31;34422;-67
2022/05/15 09:24:03;;;;;;;2.53;1.10;;;;;;;30.39;24.67;100709.34;5589382;31;33169;-66
2022/05/15 09:27:14;;;;;;;9.27;1.17;;;;;;;32.66;21.54;100715.97;5588505;31;32446;-67
2022/05/15 09:30:18;;;;;;;1.85;0.90;;;;;;;32.44;22.14;100718.56;5588626;31;33155;-67
2022/05/15 09:33:37;;;;;;;1.48;0.93;;;;;;;32.24;22.30;100714.28;5588696;31;32538;-66
2022/05/15 09:36:42;;;;;;;4.40;0.95;;;;;;;33.43;21.15;100710.41;5589500;31;34715;-67
2022/05/15 09:40:01;;;;;;;1.87;0.77;;;;;;;33.42;21.12;100716.19;5588618;31;33857;-67
2022/05/15 09:46:28;;;;;;;2.85;0.90;;;;;;;31.33;22.62;100702.09;5587782;31;32682;-66
2022/05/15 09:49:33;;;;;;;1.40;0.80;;;;;;;32.90;20.26;100703.91;5588882;31;33316;-66
2022/05/15 09:52:41;;;;;;;2.72;1.00;;;;;;;32.63;19.98;100696.50;5588616;31;32397;-66
2022/05/15 09:55:56;;;;;;;1.27;0.70;;;;;;;31.47;21.44;100713.94;5575887;31;33547;-67
2022/05/15 09:59:05;;;;;;;1.27;0.82;;;;;;;31.42;21.29;100703.03;5589002;31;32475;-66
2022/05/15 10:02:18;;;;;;;2.75;0.90;;;;;;;30.07;22.14;100699.00;5575673;31;32453;-67
2022/05/15 10:05:23;;;;;;;2.30;0.90;;;;;;;30.48;22.30;100695.84;5588983;31;32725;-66
2022/05/15 10:08:27;;;;;;;2.03;1.08;;;;;;;31.50;21.63;100707.03;5588745;31;32348;-66
2022/05/15 10:11:33;;;;;;;5.95;0.90;;;;;;;32.35;20.40;100695.69;5575294;31;34005;-68
2022/05/15 10:14:48;;;;;;;5.10;0.80;;;;;;;33.38;19.06;100705.03;5588549;31;33930;-69
2022/05/15 10:17:56;;;;;;;2.53;0.90;;;;;;;33.79;18.03;100704.84;5588611;31;33217;-68
2022/05/15 10:21:00;;;;;;;4.00;1.10;;;;;;;35.01;17.79;100698.66;5588587;31;33506;-66
2022/05/15 10:24:08;;;;;;;2.45;1.00;;;;;;;33.78;18.94;100694.16;5588483;31;33595;-67
2022/05/15 10:27:19;;;;;;;2.03;0.90;;;;;;;33.26;19.15;100703.97;5583960;31;138939;-66
2022/05/15 10:30:37;;;;;;;2.03;0.80;;;;;;;31.90;20.23;100698.13;5588031;31;32936;-67
2022/05/15 10:33:42;;;;;;;2.55;0.90;;;;;;;30.46;21.75;100685.19;5588321;31;32974;-67
2022/05/15 10:37:22;;;;;;;2.05;0.90;;;;;;;32.18;20.54;100690.81;5588434;31;34207;-66
2022/05/15 10:40:40;;;;;;;2.12;0.90;;;;;;;32.41;20.29;100691.72;5575500;31;32862;-66
2022/05/15 10:43:53;;;;;;;1.40;0.77;;;;;;;31.49;21.15;100689.78;5588334;31;33027;-67
2022/05/15 10:47:06;;;;;;;1.00;0.70;;;;;;;32.96;19.06;100686.19;5588239;31;32652;-66
2022/05/15 10:50:38;;;;;;;1.85;0.70;;;;;;;32.93;19.40;100686.78;5588226;31;32551;-65
2022/05/15 10:57:30;;;;;;;1.70;0.90;;;;;;;33.65;19.43;100684.03;5589350;31;34166;-67
2022/05/15 11:01:21;;;;;;;2.00;0.98;;;;;;;35.20;17.96;100680.69;5588333;31;32471;-65
2022/05/15 11:04:43;;;;;;;3.03;0.85;;;;;;;32.80;19.95;100682.97;5541575;31;32717;-67
2022/05/15 11:08:05;;;;;;;1.10;0.88;;;;;;;32.63;20.57;100675.34;5589168;31;34093;-66
2022/05/15 11:11:39;;;;;;;2.25;1.00;;;;;;;34.38;18.16;100670.47;5587690;31;32197;-67
2022/05/15 11:14:52;;;;;;;2.05;0.90;;;;;;;33.81;18.80;100666.81;5588377;31;32446;-68
2022/05/15 11:18:18;;;;;;;3.72;0.70;;;;;;;32.61;19.67;100660.28;5587964;31;32615;-67
2022/05/15 11:21:30;;;;;;;1.83;0.98;;;;;;;34.31;19.11;100644.53;5589116;31;33910;-67
2022/05/15 11:24:52;;;;;;;2.90;0.93;;;;;;;33.31;19.70;100651.59;5587675;31;32820;-68
2022/05/15 11:28:19;;;;;;;1.25;0.80;;;;;;;32.64;20.03;100654.19;5587864;31;33694;-67
2022/05/15 11:31:32;;;;;;;4.18;0.98;;;;;;;33.04;19.67;100653.28;5588366;31;33955;-67
2022/05/15 11:35:12;;;;;;;3.25;1.02;;;;;;;31.85;20.99;100645.31;5587577;31;33991;-68
2022/05/15 11:38:28;;;;;;;3.35;0.90;;;;;;;34.34;18.81;100639.19;5587913;31;32765;-68
2022/05/15 11:41:38;;;;;;;3.67;0.90;;;;;;;34.19;18.89;100638.81;5587491;31;32518;-67
2022/05/15 11:44:47;;;;;;;1.45;0.77;;;;;;;34.16;18.47;100636.69;5587624;31;32883;-68
2022/05/15 11:48:11;;;;;;;1.77;0.70;;;;;;;34.34;18.09;100636.44;5588121;31;34048;-65
2022/05/15 11:51:14;;;;;;;2.08;0.90;;;;;;;34.30;18.58;100640.16;5587341;31;32635;-67
2022/05/15 11:54:37;;;;;;;3.10;0.90;;;;;;;34.28;18.27;100634.97;5587225;31;32472;-67
2022/05/15 11:57:44;;;;;;;5.60;0.98;;;;;;;32.94;19.63;100628.78;5587464;31;33377;-67
2022/05/15 12:01:12;;;;;;;2.17;0.98;;;;;;;33.51;18.38;100637.28;5587020;31;32758;-67
2022/05/15 12:04:19;;;;;;;;;;;;;;;34.82;17.54;100632.81;5587434;31;32842;-66
2022/05/15 12:07:31;;;;;;;3.95;0.90;;;;;;;34.72;17.86;100631.19;5586851;31;34805;-67
2022/05/15 12:10:34;;;;;;;2.65;1.00;;;;;;;35.64;17.10;100623.50;5589171;31;32428;-67
2022/05/15 12:13:40;;;;;;;3.08;0.90;;;;;;;36.40;16.56;100624.38;5590951;31;34672;-67
2022/05/15 12:16:58;;;;;;;1.40;0.88;;;;;;;35.04;17.37;100604.28;5577086;31;32446;-67
2022/05/15 12:20:11;;;;;;;2.17;0.88;;;;;;;35.94;16.71;100624.41;5590814;31;35219;-67
2022/05/15 12:23:25;;;;;;;3.08;1.10;;;;;;;33.65;18.35;100612.47;5590234;31;34851;-66
2022/05/15 12:26:58;;;;;;;2.05;0.90;;;;;;;34.39;18.33;100614.25;5589408;31;32903;-68
2022/05/15 12:30:10;;;;;;;2.53;1.00;;;;;;;33.15;19.83;100612.63;5581821;31;32451;-67
2022/05/15 12:33:13;;;;;;;2.28;0.98;;;;;;;36.08;17.72;100613.94;5590467;31;35305;-67
2022/05/15 12:36:27;;;;;;;2.80;1.05;;;;;;;35.83;17.69;100603.81;5590181;31;34636;-67
2022/05/15 12:39:35;;;;;;;5.15;1.00;;;;;;;36.95;16.59;100584.59;5589332;31;33975;-68
2022/05/15 12:42:41;;;;;;;3.78;1.00;;;;;;;38.25;15.41;100593.06;5589604;31;32902;-66
2022/05/15 12:45:44;;;;;;;3.80;1.17;;;;;;;37.14;15.85;100589.66;5588727;31;32360;-66
2022/05/15 12:48:48;;;;;;;1.95;1.10;;;;;;;37.92;15.28;100592.38;5589526;31;34824;-68
2022/05/15 12:51:50;;;;;;;6.05;1.10;;;;;;;37.58;15.43;100594.41;5589187;31;34417;-67
2022/05/15 12:54:57;;;;;;;1.50;0.98;;;;;;;37.48;15.49;100578.22;5590152;31;34771;-67
2022/05/15 12:58:07;;;;;;;2.05;0.90;;;;;;;35.94;16.80;100577.47;5590205;31;33981;-67
2022/05/15 13:01:12;;;;;;;2.30;1.00;;;;;;;37.58;15.44;100588.88;5590449;31;33995;-67
2022/05/15 13:04:23;;;;;;;3.45;0.90;;;;;;;36.12;16.56;100571.50;5589563;31;32929;-67
2022/05/15 13:07:29;;;;;;;1.27;0.65;;;;;;;36.70;15.69;100569.84;5590049;31;34730;-66
2022/05/15 13:10:43;;;;;;;2.30;1.10;;;;;;;34.98;17.28;100567.78;5589179;31;33010;-67
2022/05/15 13:13:49;;;;;;;3.58;1.10;;;;;;;37.55;15.60;100561.91;5589179;31;33468;-67
2022/05/15 13:16:53;;;;;;;1.12;0.80;;;;;;;37.55;15.71;100566.63;5588706;31;32691;-67
2022/05/15 13:19:56;;;;;;;1.10;0.80;;;;;;;39.95;14.00;100553.47;5588664;31;33190;-68
2022/05/15 13:22:59;;;;;;;2.30;0.80;;;;;;;41.63;12.84;100559.41;5588613;31;33992;-68
2022/05/15 13:26:05;;;;;;;2.42;1.00;;;;;;;43.09;11.67;100553.91;5588601;31;34558;-68
2022/05/15 13:29:14;;;;;;;2.33;0.98;;;;;;;39.29;14.30;100548.63;5589956;31;34115;-66
2022/05/15 13:32:17;;;;;;;3.90;0.70;;;;;;;40.08;14.07;100545.87;5588929;31;33091;-66
2022/05/15 13:35:20;;;;;;;5.43;0.90;;;;;;;38.39;14.93;100549.19;5589173;31;32431;-66
2022/05/15 13:45:26;;;;;;;2.78;0.90;;;;;;;35.05;18.03;100518.47;5588673;31;33324;-67
2022/05/15 13:48:56;;;;;;;2.55;1.05;;;;;;;37.11;16.26;100529.50;5589014;31;34153;-68
2022/05/15 13:52:22;;;;;;;4.70;1.30;;;;;;;36.79;16.29;100522.78;5589001;31;33046;-68
2022/05/15 13:55:38;;;;;;;1.92;0.90;;;;;;;33.79;19.09;100514.94;5588923;31;32438;-67
2022/05/15 13:58:49;;;;;;;2.30;1.05;;;;;;;34.98;17.30;100518.16;5588468;31;34155;-66
2022/05/15 14:02:08;;;;;;;2.42;0.80;;;;;;;35.05;17.28;100515.69;5588814;31;32569;-66
2022/05/15 14:05:16;;;;;;;3.00;1.00;;;;;;;36.68;16.48;100514.09;5589690;31;34342;-66
2022/05/15 14:08:21;;;;;;;2.62;0.95;;;;;;;37.70;15.54;100514.16;5589022;31;32726;-67
2022/05/15 14:11:24;;;;;;;4.57;0.93;;;;;;;38.76;14.48;100499.97;5575946;31;33313;-67
2022/05/15 14:14:48;;;;;;;1.48;0.98;;;;;;;38.96;15.22;100506.50;5588914;31;34059;-67
2022/05/15 14:17:53;;;;;;;2.60;0.90;;;;;;;36.26;17.12;100507.78;5588386;31;33276;-67
2022/05/15 14:21:20;;;;;;;1.95;1.08;;;;;;;34.80;19.02;100502.78;5588222;31;34564;-67
2022/05/15 14:24:23;;;;;;;4.40;1.52;;;;;;;32.68;20.57;100493.91;5588732;31;32506;-67
2022/05/15 14:27:26;;;;;;;6.25;1.17;;;;;;;31.14;21.72;100495.72;5588138;31;33141;-66
2022/05/15 14:30:29;;;;;;;3.53;0.85;;;;;;;29.74;23.68;100495.53;5587793;31;33439;-66
2022/05/15 14:33:32;;;;;;;1.00;0.80;;;;;;;29.05;24.48;100490.50;5588547;31;35276;-66
2022/05/15 14:36:37;;;;;;;1.83;1.10;;;;;;;28.49;25.21;100495.56;5588536;31;32583;-66
2022/05/15 14:39:39;;;;;;;2.15;0.95;;;;;;;28.66;24.83;100490.53;5589236;31;34064;-66
2022/05/15 14:42:42;;;;;;;1.40;1.00;;;;;;;28.39;25.32;100490.19;5588534;31;34703;-66
2022/05/15 14:45:50;;;;;;;1.70;0.95;;;;;;;28.65;25.47;100480.72;5589158;31;34787;-69
2022/05/15 14:48:56;;;;;;;4.18;1.10;;;;;;;28.09;26.06;100483.78;5589199;31;34584;-68
2022/05/15 14:51:59;;;;;;;4.47;1.20;;;;;;;28.03;26.26;100478.63;5588876;31;34014;-66
2022/05/15 14:55:04;;;;;;;3.37;1.42;;;;;;;27.63;26.90;100480.44;5587989;31;33308;-66
2022/05/15 14:58:16;;;;;;;2.22;1.15;;;;;;;27.33;27.41;100466.88;5587777;31;32968;-66
2022/05/15 15:01:20;;;;;;;4.35;1.02;;;;;;;27.28;27.58;100479.69;5588814;31;34963;-68